Time;durP1;ratioP1;P1;durP2;ratioP2;P2;SDS_P1;SDS_P2;PMS_P1;PMS_P2;Temp;Humidity;BMP_temperature;BMP_pressure;BME280_temperature;BME280_humidity;BME280_pressure;Samples;Min_cycle;Max_cycle;Signal;HPM_P1;HPM_P2
2021/12/26 00:00:43;;;;;;;17.50;9.23;;;-8.40;99.90;;;;;;5054318;28;20515;-48
2021/12/26 00:03:09;;;;;;;12.85;9.88;;;-8.30;99.90;;;;;;5059919;28;20189;-52
2021/12/26 00:05:35;;;;;;;16.60;9.53;;;-8.40;99.90;;;;;;5052632;28;20237;-51
2021/12/26 00:08:00;;;;;;;14.97;9.53;;;-8.40;99.90;;;;;;5055834;28;20205;-53
2021/12/26 00:10:28;;;;;;;12.83;8.43;;;-8.40;99.90;;;;;;5055859;28;20647;-52
2021/12/26 00:12:56;;;;;;;14.07;9.63;;;-8.50;99.90;;;;;;5065115;28;20182;-52
2021/12/26 00:15:22;;;;;;;15.63;9.25;;;-8.50;99.90;;;;;;5066602;28;20297;-52
2021/12/26 00:17:48;;;;;;;12.00;9.50;;;-8.50;99.90;;;;;;5067059;28;20315;-55
2021/12/26 00:20:14;;;;;;;14.82;9.27;;;-8.50;99.90;;;;;;5078226;28;20196;-52
2021/12/26 00:22:41;;;;;;;13.98;9.77;;;-8.50;99.90;;;;;;5070645;28;20212;-49
2021/12/26 00:25:08;;;;;;;10.75;8.15;;;-8.60;99.90;;;;;;5077567;28;20219;-49
2021/12/26 00:27:35;;;;;;;10.52;8.43;;;-8.50;99.90;;;;;;5055135;28;20797;-49
2021/12/26 00:30:01;;;;;;;17.60;8.77;;;-8.50;99.90;;;;;;5080157;28;20259;-51
2021/12/26 00:32:27;;;;;;;18.42;8.32;;;-8.50;99.90;;;;;;5080881;28;22038;-63
2021/12/26 00:34:53;;;;;;;14.40;8.50;;;-8.50;99.90;;;;;;5071319;28;20198;-63
2021/12/26 00:37:19;;;;;;;11.87;6.60;;;-8.60;99.90;;;;;;5082474;28;20709;-63
2021/12/26 00:39:45;;;;;;;13.00;7.82;;;-8.60;99.90;;;;;;5068615;28;20427;-62
2021/12/26 00:42:10;;;;;;;12.17;7.47;;;-8.60;99.90;;;;;;5084098;28;20250;-63
2021/12/26 00:44:39;;;;;;;11.60;7.63;;;-8.60;99.90;;;;;;5076397;28;20200;-63
2021/12/26 00:47:07;;;;;;;11.50;8.43;;;-8.60;99.90;;;;;;5072885;28;20414;-63
2021/12/26 00:49:33;;;;;;;11.35;7.43;;;-8.60;99.90;;;;;;5084573;28;20972;-63
2021/12/26 00:51:58;;;;;;;9.03;7.07;;;-8.70;99.90;;;;;;5081168;28;20188;-61
2021/12/26 00:54:24;;;;;;;16.03;8.87;;;-8.70;99.90;;;;;;5082174;28;20181;-62
2021/12/26 00:56:49;;;;;;;11.73;7.40;;;-8.70;99.90;;;;;;5078949;28;20220;-61
2021/12/26 00:59:15;;;;;;;15.23;8.30;;;-8.80;99.90;;;;;;5071072;28;20185;-62
2021/12/26 01:01:41;;;;;;;11.13;7.50;;;-8.70;99.90;;;;;;5075473;28;20173;-62
2021/12/26 01:04:07;;;;;;;10.27;7.23;;;-8.80;99.90;;;;;;5080255;28;20419;-61
2021/12/26 01:06:33;;;;;;;13.47;8.27;;;-8.80;99.90;;;;;;5073806;28;20218;-62
2021/12/26 01:08:58;;;;;;;9.40;6.37;;;-8.80;99.90;;;;;;5079734;28;20207;-62
2021/12/26 01:11:38;;;;;;;12.53;7.20;;;-8.80;99.90;;;;;;5076871;28;20513;-61
2021/12/26 01:14:07;;;;;;;11.02;7.03;;;-8.90;99.90;;;;;;5068424;28;20246;-61
2021/12/26 01:16:34;;;;;;;9.30;6.97;;;-8.90;99.90;;;;;;5078537;28;20877;-62
2021/12/26 01:19:07;;;;;;;10.25;7.55;;;-8.90;99.90;;;;;;5079688;28;20181;-63
2021/12/26 01:21:33;;;;;;;13.63;7.55;;;-8.80;99.90;;;;;;5075611;28;20284;-63
2021/12/26 01:24:01;;;;;;;12.45;7.53;;;-8.90;99.90;;;;;;5077438;28;20220;-62
2021/12/26 01:26:27;;;;;;;12.20;8.25;;;-8.90;99.90;;;;;;5079305;28;20196;-60
2021/12/26 01:28:53;;;;;;;16.08;8.10;;;-9.00;99.90;;;;;;5057106;28;20185;-62
2021/12/26 01:31:20;;;;;;;15.90;8.87;;;-9.00;99.90;;;;;;5076546;28;21056;-62
2021/12/26 01:33:47;;;;;;;13.80;7.85;;;-9.00;99.90;;;;;;5076431;28;20407;-61
2021/12/26 01:36:13;;;;;;;10.43;7.15;;;-9.00;99.90;;;;;;5081394;28;20973;-62
2021/12/26 01:38:38;;;;;;;18.17;8.17;;;-9.00;99.90;;;;;;5078917;28;20185;-61
2021/12/26 01:41:10;;;;;;;17.13;8.70;;;-9.00;99.90;;;;;;5083430;28;20212;-61
2021/12/26 01:43:37;;;;;;;15.20;8.65;;;-8.90;99.90;;;;;;5078716;28;20305;-61
2021/12/26 01:46:04;;;;;;;9.05;7.35;;;-8.90;99.90;;;;;;5070121;28;20186;-62
2021/12/26 01:48:29;;;;;;;11.23;7.55;;;-9.00;99.90;;;;;;5068986;28;20212;-58
2021/12/26 01:50:56;;;;;;;12.50;8.40;;;-9.00;99.90;;;;;;5079626;28;20934;-62
2021/12/26 01:53:25;;;;;;;12.02;7.20;;;-8.90;99.90;;;;;;5082570;28;20205;-62
2021/12/26 01:55:53;;;;;;;10.93;7.05;;;-8.90;99.90;;;;;;5084047;28;20597;-62
2021/12/26 01:58:21;;;;;;;11.35;7.50;;;-9.00;99.90;;;;;;5078472;28;20178;-62
2021/12/26 02:00:55;;;;;;;10.15;6.70;;;-9.00;99.90;;;;;;5074791;28;20185;-62
2021/12/26 02:03:21;;;;;;;9.90;7.13;;;-9.00;99.90;;;;;;5069217;28;20210;-62
2021/12/26 02:05:47;;;;;;;12.13;7.72;;;-9.10;99.90;;;;;;5071221;28;20266;-62
2021/12/26 02:08:13;;;;;;;10.43;7.17;;;-9.00;99.90;;;;;;5078030;28;20226;-62
2021/12/26 02:10:39;;;;;;;13.70;7.95;;;-9.00;99.90;;;;;;5081791;28;20250;-63
2021/12/26 02:13:06;;;;;;;12.98;8.55;;;-8.90;99.90;;;;;;5077412;28;20182;-62
2021/12/26 02:15:31;;;;;;;14.77;8.90;;;-9.00;99.90;;;;;;5081406;28;20208;-62
2021/12/26 02:17:57;;;;;;;11.87;7.27;;;-9.00;99.90;;;;;;5077122;28;20228;-62
2021/12/26 02:20:45;;;;;;;11.23;7.82;;;-9.00;99.90;;;;;;5074712;28;20193;-62
2021/12/26 02:23:19;;;;;;;10.05;7.15;;;-9.00;99.90;;;;;;5079059;28;20177;-62
2021/12/26 02:28:25;;;;;;;12.57;8.30;;;-9.00;99.90;;;;;;5067604;28;20200;-62
2021/12/26 02:30:53;;;;;;;14.80;8.68;;;-9.00;99.90;;;;;;5072559;28;20185;-62
2021/12/26 02:33:18;;;;;;;11.50;7.13;;;-9.00;99.90;;;;;;5067247;28;20186;-61
2021/12/26 02:35:45;;;;;;;8.20;6.40;;;-9.00;99.90;;;;;;5076930;28;20212;-61
2021/12/26 02:38:12;;;;;;;11.10;6.97;;;-9.10;99.90;;;;;;5075992;28;20418;-62
2021/12/26 02:40:43;;;;;;;11.65;7.47;;;-9.10;99.90;;;;;;5070294;28;20631;-61
2021/12/26 02:43:09;;;;;;;13.00;7.30;;;-9.10;99.90;;;;;;5083086;28;20206;-61
2021/12/26 02:45:35;;;;;;;15.32;8.13;;;-9.10;99.90;;;;;;5083388;28;20264;-59
2021/12/26 02:48:01;;;;;;;11.95;7.32;;;-9.20;99.90;;;;;;5076770;28;20653;-62
2021/12/26 02:50:30;;;;;;;10.70;6.93;;;-9.20;99.90;;;;;;5068853;28;20185;-62
2021/12/26 02:53:01;;;;;;;13.30;8.80;;;-9.20;99.90;;;;;;5082041;28;20952;-63
2021/12/26 02:55:27;;;;;;;11.57;7.28;;;-9.20;99.90;;;;;;5080467;28;20232;-61
2021/12/26 02:57:59;;;;;;;11.60;7.47;;;-9.20;99.90;;;;;;5082316;28;20225;-62
2021/12/26 03:00:28;;;;;;;9.80;6.85;;;-9.20;99.90;;;;;;5067763;28;20182;-62
2021/12/26 03:02:56;;;;;;;9.65;6.10;;;-9.10;99.90;;;;;;5069090;28;20620;-62
2021/12/26 03:05:25;;;;;;;12.23;8.02;;;-9.10;99.90;;;;;;5071691;28;20208;-62
2021/12/26 03:07:51;;;;;;;9.55;6.68;;;-9.00;99.90;;;;;;5065875;28;20201;-62
2021/12/26 03:10:24;;;;;;;11.13;7.53;;;-9.00;99.90;;;;;;5080128;28;20193;-62
2021/12/26 03:12:54;;;;;;;11.38;6.88;;;-9.00;99.90;;;;;;5067295;28;20276;-62
2021/12/26 03:15:21;;;;;;;14.40;7.60;;;-9.00;99.90;;;;;;5076174;28;20299;-62
2021/12/26 03:17:48;;;;;;;12.52;7.57;;;-9.00;99.90;;;;;;5079333;28;20229;-62
2021/12/26 03:20:23;;;;;;;12.15;7.43;;;-9.00;99.90;;;;;;5075944;28;20178;-62
2021/12/26 03:22:49;;;;;;;11.55;7.32;;;-9.00;99.90;;;;;;5068966;28;20186;-61
2021/12/26 03:25:18;;;;;;;10.10;7.80;;;-9.00;99.90;;;;;;5082259;28;20248;-62
2021/12/26 03:27:44;;;;;;;10.20;7.95;;;-9.00;99.90;;;;;;5074551;28;20465;-62
2021/12/26 03:30:13;;;;;;;10.25;6.90;;;-9.00;99.90;;;;;;5071481;28;20221;-62
2021/12/26 03:32:39;;;;;;;9.40;6.80;;;-9.00;99.90;;;;;;5067301;28;20189;-62
2021/12/26 03:35:06;;;;;;;12.45;7.35;;;-9.10;99.90;;;;;;5074721;28;20189;-62
2021/12/26 03:37:32;;;;;;;9.32;6.65;;;-9.10;99.90;;;;;;5083786;28;20247;-62
2021/12/26 03:39:57;;;;;;;11.13;7.00;;;-9.20;99.90;;;;;;5074173;28;20181;-62
2021/12/26 03:42:23;;;;;;;9.63;5.20;;;-9.20;99.90;;;;;;5081553;28;20221;-52
2021/12/26 03:44:50;;;;;;;10.13;6.95;;;-9.10;99.90;;;;;;5077236;28;20270;-50
2021/12/26 03:47:16;;;;;;;10.88;6.60;;;-9.20;99.90;;;;;;5075821;28;20549;-52
2021/12/26 03:49:42;;;;;;;9.65;6.15;;;-9.10;99.90;;;;;;5075064;28;20182;-49
2021/12/26 03:52:08;;;;;;;9.90;6.73;;;-9.10;99.90;;;;;;5081669;28;20281;-50
2021/12/26 03:54:33;;;;;;;9.87;6.83;;;-9.10;99.90;;;;;;5080737;28;20712;-51
2021/12/26 03:57:00;;;;;;;12.87;7.90;;;-9.10;99.90;;;;;;5071189;28;20221;-52
2021/12/26 03:59:27;;;;;;;8.80;5.90;;;-9.10;99.90;;;;;;5071917;28;20418;-50
2021/12/26 04:01:56;;;;;;;9.95;6.40;;;-9.00;99.90;;;;;;5078557;28;20185;-53
2021/12/26 04:04:22;;;;;;;9.00;5.93;;;-9.00;99.90;;;;;;5069769;28;20174;-54
2021/12/26 04:06:47;;;;;;;11.40;6.40;;;-9.00;99.90;;;;;;5080832;28;20193;-51
2021/12/26 04:09:13;;;;;;;11.70;7.17;;;-9.00;99.90;;;;;;5071766;28;20710;-49
2021/12/26 04:11:42;;;;;;;11.63;7.03;;;-8.90;99.90;;;;;;5079507;28;20206;-50
2021/12/26 04:14:08;;;;;;;10.20;6.40;;;-8.90;99.90;;;;;;5084395;28;20489;-53
2021/12/26 04:16:34;;;;;;;8.55;6.30;;;-8.90;99.90;;;;;;5075173;28;20321;-50
2021/12/26 04:18:59;;;;;;;11.23;6.40;;;-8.90;99.90;;;;;;5081776;28;21020;-49
2021/12/26 04:21:25;;;;;;;12.47;6.10;;;-8.90;99.90;;;;;;5056434;28;20411;-51
2021/12/26 04:23:51;;;;;;;9.30;6.10;;;-8.90;99.90;;;;;;5086087;28;20209;-48
2021/12/26 04:26:16;;;;;;;11.20;5.10;;;-8.90;99.90;;;;;;5069959;28;20647;-48
2021/12/26 04:28:42;;;;;;;10.20;5.67;;;-8.80;99.90;;;;;;5071284;28;20417;-48
2021/12/26 04:31:08;;;;;;;13.70;5.77;;;-8.70;99.90;;;;;;5064627;28;20185;-50
2021/12/26 04:33:33;;;;;;;8.37;5.93;;;-8.60;99.90;;;;;;5070511;28;20188;-51
2021/12/26 04:35:59;;;;;;;6.37;5.20;;;-8.50;99.90;;;;;;5073002;28;20220;-48
2021/12/26 04:38:25;;;;;;;7.87;5.53;;;-8.40;99.90;;;;;;5078429;28;20240;-49
2021/12/26 04:40:51;;;;;;;9.00;5.90;;;-8.40;99.90;;;;;;5074307;28;20178;-53
2021/12/26 04:43:20;;;;;;;8.85;6.07;;;-8.30;99.90;;;;;;5056776;28;20177;-51
2021/12/26 04:45:46;;;;;;;10.82;6.25;;;-8.30;99.90;;;;;;5076148;28;20182;-50
2021/12/26 04:48:13;;;;;;;9.63;5.13;;;-8.30;99.90;;;;;;5080302;28;20214;-52
2021/12/26 04:50:39;;;;;;;9.65;5.55;;;-8.30;99.90;;;;;;5077619;28;20627;-54
2021/12/26 04:53:04;;;;;;;10.50;5.97;;;-8.30;99.90;;;;;;5073579;28;20199;-50
2021/12/26 04:55:30;;;;;;;11.80;5.90;;;-8.40;99.90;;;;;;5081800;28;20205;-51
2021/12/26 04:57:57;;;;;;;7.30;5.33;;;-8.40;99.90;;;;;;5078556;28;20205;-49
2021/12/26 05:00:26;;;;;;;10.60;6.45;;;-8.40;99.90;;;;;;5075038;28;20431;-51
2021/12/26 05:02:52;;;;;;;11.70;6.97;;;-8.50;99.90;;;;;;5064762;28;20246;-47
2021/12/26 05:05:18;;;;;;;7.47;5.97;;;-8.50;99.90;;;;;;5080123;28;20243;-53
2021/12/26 05:07:44;;;;;;;10.07;5.20;;;-8.60;99.90;;;;;;5073538;28;20193;-49
2021/12/26 05:10:12;;;;;;;8.50;5.53;;;-8.60;99.90;;;;;;5079826;28;20238;-52
2021/12/26 05:12:38;;;;;;;9.00;4.60;;;-8.70;99.90;;;;;;5069815;28;20194;-50
2021/12/26 05:15:05;;;;;;;8.52;5.90;;;-8.70;99.90;;;;;;5075293;28;20521;-50
2021/12/26 05:17:30;;;;;;;9.90;6.40;;;-8.70;99.90;;;;;;5083958;28;20224;-51
2021/12/26 05:19:56;;;;;;;8.70;5.20;;;-8.70;99.90;;;;;;5081422;28;20205;-49
2021/12/26 05:22:22;;;;;;;9.02;5.57;;;-8.60;99.90;;;;;;5073671;28;20177;-49
2021/12/26 05:24:48;;;;;;;9.63;5.67;;;-8.60;99.90;;;;;;5075786;28;20741;-49
2021/12/26 05:27:14;;;;;;;7.95;5.75;;;-8.60;99.90;;;;;;5084390;28;20542;-49
2021/12/26 05:29:40;;;;;;;9.23;5.18;;;-8.70;99.90;;;;;;5082746;28;20195;-52
2021/12/26 05:32:06;;;;;;;7.43;5.87;;;-8.70;99.90;;;;;;5070893;28;20554;-54
2021/12/26 05:34:31;;;;;;;8.87;6.10;;;-8.60;99.90;;;;;;5077549;28;20208;-53
2021/12/26 05:36:57;;;;;;;10.70;5.97;;;-8.60;99.90;;;;;;5076362;28;20432;-48
2021/12/26 05:39:23;;;;;;;8.40;5.40;;;-8.70;99.90;;;;;;5074704;28;20265;-50
2021/12/26 05:41:48;;;;;;;11.07;5.60;;;-8.70;99.90;;;;;;5071915;28;20189;-49
2021/12/26 05:44:14;;;;;;;10.73;4.90;;;-8.60;99.90;;;;;;5077459;28;20177;-54
2021/12/26 05:46:39;;;;;;;9.30;5.80;;;-8.60;99.90;;;;;;5069072;28;20185;-50
2021/12/26 05:49:05;;;;;;;9.37;6.30;;;-8.50;99.90;;;;;;5060979;28;20212;-53
2021/12/26 05:51:32;;;;;;;6.17;5.10;;;-8.50;99.90;;;;;;5073258;28;21019;-55
2021/12/26 05:53:57;;;;;;;14.02;6.50;;;-8.50;99.90;;;;;;5079225;28;20409;-48
2021/12/26 05:56:23;;;;;;;11.20;5.97;;;-8.50;99.90;;;;;;5076029;28;20296;-51
2021/12/26 05:58:49;;;;;;;8.07;6.23;;;-8.50;99.90;;;;;;5076177;28;20648;-50
2021/12/26 06:01:14;;;;;;;10.27;5.97;;;-8.50;99.90;;;;;;5073403;28;20189;-50
2021/12/26 06:03:40;;;;;;;9.10;5.87;;;-8.50;99.90;;;;;;5082951;28;20200;-49
2021/12/26 06:06:06;;;;;;;8.20;6.03;;;-8.50;99.90;;;;;;5074945;28;20189;-54
2021/12/26 06:08:32;;;;;;;9.90;6.30;;;-8.50;99.90;;;;;;5076973;28;20431;-55
2021/12/26 06:10:57;;;;;;;9.23;6.30;;;-8.40;99.90;;;;;;5082738;28;20639;-53
2021/12/26 06:13:23;;;;;;;7.27;5.33;;;-8.40;99.90;;;;;;5080286;28;20190;-49
2021/12/26 06:15:49;;;;;;;10.30;6.37;;;-8.30;99.90;;;;;;5071569;28;20304;-51
2021/12/26 06:18:14;;;;;;;15.47;6.77;;;-8.30;99.90;;;;;;5083755;28;20260;-51
2021/12/26 06:20:40;;;;;;;11.57;6.27;;;-8.30;99.90;;;;;;5078542;28;20929;-51
2021/12/26 06:23:05;;;;;;;11.50;5.70;;;-8.30;99.90;;;;;;5073381;28;20193;-52
2021/12/26 06:25:31;;;;;;;9.33;5.30;;;-8.30;99.90;;;;;;5079812;28;20243;-52
2021/12/26 06:27:57;;;;;;;7.80;5.40;;;-8.20;99.90;;;;;;5075729;28;20514;-54
2021/12/26 06:30:23;;;;;;;6.93;5.50;;;-8.20;99.90;;;;;;5070389;28;20473;-52
2021/12/26 06:32:48;;;;;;;6.40;4.60;;;-8.10;99.90;;;;;;5078750;28;21063;-49
2021/12/26 06:35:14;;;;;;;7.23;4.70;;;-8.10;99.90;;;;;;5066485;28;20426;-53
2021/12/26 06:37:41;;;;;;;8.87;4.73;;;-8.00;99.90;;;;;;5071189;28;20636;-53
2021/12/26 06:40:09;;;;;;;7.32;4.95;;;-8.00;99.90;;;;;;5076151;28;20181;-52
2021/12/26 06:42:40;;;;;;;8.13;4.90;;;-8.10;99.90;;;;;;5076266;28;20180;-48
2021/12/26 06:45:07;;;;;;;11.35;4.78;;;-8.00;99.90;;;;;;5077804;28;20868;-48
2021/12/26 06:47:33;;;;;;;8.32;5.05;;;-8.00;99.90;;;;;;5073523;28;20177;-50
2021/12/26 06:49:58;;;;;;;9.07;5.80;;;-8.00;99.90;;;;;;5069540;28;20173;-50
2021/12/26 06:52:24;;;;;;;5.60;4.40;;;-7.90;99.90;;;;;;5075776;28;20178;-52
2021/12/26 06:54:50;;;;;;;7.33;4.70;;;-8.00;99.90;;;;;;5056552;28;20762;-49
2021/12/26 06:57:15;;;;;;;8.50;4.90;;;-8.00;99.90;;;;;;5068213;28;20202;-49
2021/12/26 06:59:41;;;;;;;8.03;4.70;;;-7.90;99.90;;;;;;5070158;28;20435;-51
2021/12/26 07:02:07;;;;;;;8.93;5.30;;;-7.90;99.90;;;;;;5064332;28;20411;-50
2021/12/26 07:04:32;;;;;;;7.07;5.10;;;-7.80;99.90;;;;;;5058508;28;20264;-52
2021/12/26 07:06:58;;;;;;;7.70;4.43;;;-7.70;99.90;;;;;;5058687;28;20193;-51
2021/12/26 07:09:24;;;;;;;7.60;4.30;;;-7.60;99.90;;;;;;5058005;28;20788;-50
2021/12/26 07:11:49;;;;;;;5.40;4.30;;;-7.50;99.90;;;;;;5058116;28;20443;-54
2021/12/26 07:14:15;;;;;;;5.87;4.87;;;-7.40;99.90;;;;;;5059298;28;20177;-50
2021/12/26 07:16:40;;;;;;;7.13;4.63;;;-7.40;99.90;;;;;;5057740;28;20296;-48
2021/12/26 07:19:06;;;;;;;8.53;5.30;;;-7.30;99.90;;;;;;5056062;28;20194;-51
2021/12/26 07:21:31;;;;;;;10.10;5.40;;;-7.30;99.90;;;;;;5058433;28;20182;-50
2021/12/26 07:23:57;;;;;;;8.03;4.87;;;-7.30;99.90;;;;;;5059052;28;20186;-50
2021/12/26 07:26:24;;;;;;;9.43;5.07;;;-7.20;99.90;;;;;;5058543;28;20205;-53
2021/12/26 07:28:50;;;;;;;7.40;5.47;;;-7.20;99.90;;;;;;5059106;28;20200;-54
2021/12/26 07:31:16;;;;;;;9.18;5.35;;;-7.20;99.90;;;;;;5061691;28;20774;-51
2021/12/26 07:33:42;;;;;;;8.10;5.77;;;-7.20;99.90;;;;;;5061136;28;20197;-55
2021/12/26 07:36:07;;;;;;;12.60;6.32;;;-7.20;99.90;;;;;;5063346;28;20999;-53
2021/12/26 07:38:33;;;;;;;8.07;5.10;;;-7.10;99.90;;;;;;5062258;28;20182;-49
2021/12/26 07:40:59;;;;;;;7.10;5.03;;;-7.10;99.90;;;;;;5062940;28;21423;-51
2021/12/26 07:43:24;;;;;;;8.10;5.23;;;-7.00;99.90;;;;;;5045464;28;20184;-51
2021/12/26 07:45:50;;;;;;;7.73;4.57;;;-7.10;99.90;;;;;;5060598;28;20196;-55
2021/12/26 07:48:15;;;;;;;7.80;4.63;;;-7.00;99.90;;;;;;5063017;28;20190;-50
2021/12/26 07:50:41;;;;;;;8.57;5.90;;;-7.00;99.90;;;;;;5060252;28;20211;-49
2021/12/26 07:53:10;;;;;;;7.30;5.00;;;-6.90;99.90;;;;;;5059327;28;20185;-53
2021/12/26 07:55:37;;;;;;;7.78;5.70;;;-6.90;99.90;;;;;;5061845;28;20212;-52
2021/12/26 07:58:03;;;;;;;8.88;5.47;;;-6.90;99.90;;;;;;5052456;28;20422;-50
2021/12/26 08:00:28;;;;;;;11.05;6.50;;;-6.80;99.90;;;;;;5057591;28;21284;-52
2021/12/26 08:02:55;;;;;;;9.40;5.50;;;-6.70;99.90;;;;;;5060709;28;20189;-49
2021/12/26 08:05:21;;;;;;;9.18;5.72;;;-6.50;99.90;;;;;;5058190;28;21120;-52
2021/12/26 08:07:47;;;;;;;8.27;5.50;;;-6.40;99.90;;;;;;5059117;28;20192;-51
2021/12/26 08:10:12;;;;;;;10.87;6.70;;;-6.20;99.90;;;;;;5061080;28;20424;-53
2021/12/26 08:12:38;;;;;;;13.00;6.37;;;-6.20;99.90;;;;;;5059584;28;20642;-54
2021/12/26 08:15:04;;;;;;;11.30;6.67;;;-6.00;99.90;;;;;;5062132;28;20190;-53
2021/12/26 08:17:30;;;;;;;9.90;6.07;;;-5.90;99.90;;;;;;5078702;28;20480;-49
2021/12/26 08:19:57;;;;;;;11.57;6.55;;;-5.40;99.90;;;;;;5077199;28;20177;-55
2021/12/26 08:22:24;;;;;;;10.23;6.10;;;-5.10;99.90;;;;;;5084378;28;20178;-48
2021/12/26 08:24:49;;;;;;;11.20;6.10;;;-5.00;99.90;;;;;;5066927;28;20177;-54
2021/12/26 08:27:15;;;;;;;10.57;5.60;;;-4.70;99.90;;;;;;5066742;28;20204;-51
2021/12/26 08:29:41;;;;;;;10.77;6.00;;;-4.50;99.90;;;;;;5064281;28;20177;-54
2021/12/26 08:32:11;;;;;;;8.50;6.85;;;-4.00;99.90;;;;;;5074264;28;20194;-52
2021/12/26 08:34:36;;;;;;;11.73;7.40;;;-3.60;99.90;;;;;;5079674;28;20189;-55
2021/12/26 08:37:03;;;;;;;10.30;6.90;;;-3.40;99.90;;;;;;5064399;28;20203;-58
2021/12/26 08:39:32;;;;;;;10.75;7.50;;;-3.20;99.90;;;;;;5068957;28;20169;-53
2021/12/26 08:41:58;;;;;;;8.98;6.88;;;-2.90;99.90;;;;;;5070581;28;20178;-51
2021/12/26 08:44:24;;;;;;;13.25;7.60;;;-2.40;99.90;;;;;;5063649;28;20319;-56
2021/12/26 08:46:50;;;;;;;13.70;11.73;;;-1.90;99.90;;;;;;5074633;28;20653;-56
2021/12/26 08:49:17;;;;;;;11.45;8.15;;;-1.40;99.90;;;;;;5061926;28;20296;-56
2021/12/26 08:51:43;;;;;;;11.77;8.40;;;-0.80;99.90;;;;;;5068828;28;20182;-49
2021/12/26 08:54:09;;;;;;;10.60;8.73;;;0.00;99.90;;;;;;5072032;28;20182;-53
2021/12/26 08:56:36;;;;;;;10.02;7.50;;;0.30;97.90;;;;;;5071801;28;20253;-53
2021/12/26 08:59:02;;;;;;;8.63;7.10;;;0.70;94.40;;;;;;5066003;28;20707;-55
2021/12/26 09:01:27;;;;;;;8.93;7.38;;;1.00;91.60;;;;;;5078748;28;20263;-57
2021/12/26 09:03:53;;;;;;;9.20;7.13;;;1.40;90.20;;;;;;5074598;28;20265;-56
2021/12/26 09:06:18;;;;;;;8.70;7.67;;;1.20;85.60;;;;;;5072841;28;20223;-51
2021/12/26 09:08:44;;;;;;;9.00;7.30;;;1.80;86.20;;;;;;5071426;28;20192;-52
2021/12/26 09:11:10;;;;;;;7.77;6.97;;;2.30;83.80;;;;;;5072770;28;20178;-54
2021/12/26 09:13:35;;;;;;;8.87;7.00;;;2.60;80.80;;;;;;5076226;28;20185;-56
2021/12/26 09:16:01;;;;;;;8.20;6.90;;;2.90;75.70;;;;;;5068810;28;20236;-56
2021/12/26 09:18:27;;;;;;;7.88;7.05;;;3.20;74.40;;;;;;5071771;28;20607;-53
2021/12/26 09:20:53;;;;;;;6.83;6.17;;;3.40;70.50;;;;;;5071508;28;20212;-55
2021/12/26 09:23:18;;;;;;;7.77;6.80;;;3.60;69.90;;;;;;5080289;28;20178;-58
2021/12/26 09:25:44;;;;;;;8.67;6.53;;;3.80;70.50;;;;;;5074703;28;20191;-56
2021/12/26 09:28:10;;;;;;;9.47;6.63;;;4.10;65.20;;;;;;5074475;28;20616;-55
2021/12/26 09:30:37;;;;;;;8.37;6.50;;;4.20;61.70;;;;;;5075396;28;20636;-52
2021/12/26 09:33:03;;;;;;;8.13;6.97;;;4.10;62.10;;;;;;5068894;28;20177;-54
2021/12/26 09:35:29;;;;;;;8.00;6.78;;;3.60;60.60;;;;;;5065493;28;20222;-51
2021/12/26 09:37:54;;;;;;;7.53;6.83;;;3.50;61.20;;;;;;5063042;28;20501;-64
2021/12/26 09:40:20;;;;;;;8.30;7.50;;;3.70;58.60;;;;;;5058662;28;20180;-60
2021/12/26 09:42:46;;;;;;;8.77;6.73;;;3.80;59.20;;;;;;5051653;28;20433;-63
2021/12/26 09:45:13;;;;;;;7.55;6.72;;;3.40;59.60;;;;;;5056068;28;20635;-62
2021/12/26 09:47:40;;;;;;;7.95;7.13;;;3.70;59.80;;;;;;5057142;28;20193;-52
2021/12/26 09:50:10;;;;;;;8.13;7.10;;;4.00;62.10;;;;;;5062106;28;20173;-57
2021/12/26 09:52:36;;;;;;;10.27;6.97;;;4.20;58.40;;;;;;5070511;28;20192;-56
2021/12/26 09:55:02;;;;;;;6.40;5.80;;;4.10;56.50;;;;;;5072718;28;20181;-52
2021/12/26 09:57:29;;;;;;;7.13;6.50;;;4.40;57.30;;;;;;5069533;28;20502;-56
2021/12/26 09:59:54;;;;;;;7.20;6.53;;;4.10;54.70;;;;;;5070767;28;20435;-54
2021/12/26 10:02:20;;;;;;;7.83;7.07;;;3.80;55.50;;;;;;5070674;28;20260;-56
2021/12/26 10:04:48;;;;;;;8.40;6.37;;;3.80;56.00;;;;;;5072324;28;20448;-56
2021/12/26 10:07:17;;;;;;;7.47;6.75;;;3.60;54.80;;;;;;5064159;28;20659;-53
2021/12/26 10:09:48;;;;;;;7.00;6.30;;;4.10;53.50;;;;;;5066221;28;20174;-56
2021/12/26 10:12:16;;;;;;;6.80;6.10;;;4.10;54.40;;;;;;5072239;28;20178;-55
2021/12/26 10:14:46;;;;;;;7.13;6.32;;;4.50;52.90;;;;;;5075567;28;20658;-55
2021/12/26 10:17:15;;;;;;;7.83;7.17;;;4.90;51.60;;;;;;5064018;28;20230;-49
2021/12/26 10:19:46;;;;;;;7.70;7.00;;;5.40;51.90;;;;;;5066234;28;21027;-54
2021/12/26 10:22:14;;;;;;;6.23;5.60;;;5.70;51.10;;;;;;5066804;28;20481;-50
2021/12/26 10:24:42;;;;;;;6.60;6.07;;;6.30;50.50;;;;;;5067979;28;20443;-53
2021/12/26 10:27:16;;;;;;;7.00;5.30;;;6.90;48.50;;;;;;5067666;28;20436;-52
2021/12/26 10:29:44;;;;;;;4.97;4.57;;;6.80;45.80;;;;;;5067215;28;20435;-53
2021/12/26 10:32:13;;;;;;;6.00;5.43;;;6.90;45.10;;;;;;5065937;28;20439;-52
2021/12/26 10:34:43;;;;;;;6.20;5.20;;;6.70;43.00;;;;;;5070832;28;20440;-55
2021/12/26 10:37:21;;;;;;;5.13;4.67;;;7.20;43.60;;;;;;5067270;28;20491;-50
2021/12/26 10:39:51;;;;;;;5.90;5.30;;;7.10;41.30;;;;;;5067498;28;20439;-52
2021/12/26 10:42:21;;;;;;;6.10;5.50;;;7.40;41.30;;;;;;5067421;28;20443;-56
2021/12/26 10:45:08;;;;;;;6.27;5.40;;;6.90;40.60;;;;;;5066180;28;20485;-54
2021/12/26 10:47:36;;;;;;;6.40;5.50;;;6.90;41.00;;;;;;5048696;28;20498;-52
2021/12/26 10:50:12;;;;;;;6.60;5.70;;;7.30;41.40;;;;;;5067479;28;20498;-54
2021/12/26 10:52:38;;;;;;;5.73;5.23;;;7.10;41.00;;;;;;5073182;28;20439;-55
2021/12/26 10:55:07;;;;;;;6.60;5.90;;;7.80;40.60;;;;;;5071056;28;20876;-55
2021/12/26 10:57:45;;;;;;;5.90;5.03;;;8.10;39.20;;;;;;5067942;28;20433;-60
2021/12/26 11:00:16;;;;;;;6.43;5.93;;;7.90;37.70;;;;;;5065464;28;20173;-54
2021/12/26 11:02:45;;;;;;;5.90;5.40;;;7.30;37.30;;;;;;5070020;28;20795;-57
2021/12/26 11:05:14;;;;;;;7.30;6.60;;;7.10;37.50;;;;;;5071471;28;21338;-57
2021/12/26 11:07:51;;;;;;;6.73;6.13;;;7.30;36.80;;;;;;5078687;28;20439;-56
2021/12/26 11:10:21;;;;;;;6.50;5.50;;;7.20;36.20;;;;;;5070519;28;20438;-57
2021/12/26 11:12:50;;;;;;;6.70;6.13;;;7.10;37.50;;;;;;5065715;28;20943;-57
2021/12/26 11:15:18;;;;;;;6.67;6.17;;;7.20;38.00;;;;;;5071199;28;20535;-56
2021/12/26 11:17:55;;;;;;;6.10;5.60;;;6.90;36.60;;;;;;5061087;28;20472;-57
2021/12/26 11:20:31;;;;;;;6.70;5.50;;;7.10;36.10;;;;;;5032420;28;20576;-53
2021/12/26 11:22:59;;;;;;;6.20;5.70;;;7.00;36.30;;;;;;5047547;28;20424;-55
2021/12/26 11:25:25;;;;;;;5.83;5.13;;;6.50;36.50;;;;;;5051457;28;20424;-53
2021/12/26 11:27:51;;;;;;;6.20;5.60;;;6.20;36.50;;;;;;5032215;28;20416;-49
2021/12/26 11:30:18;;;;;;;5.83;5.23;;;6.10;37.00;;;;;;5046632;28;20482;-51
2021/12/26 11:32:44;;;;;;;7.93;5.00;;;6.30;36.60;;;;;;5050090;28;20884;-56
2021/12/26 11:35:10;;;;;;;5.40;4.90;;;6.30;35.70;;;;;;5049948;28;20425;-56
2021/12/26 11:37:37;;;;;;;5.90;5.50;;;6.20;35.50;;;;;;5050839;28;20432;-55
2021/12/26 11:40:05;;;;;;;5.97;5.20;;;6.10;36.50;;;;;;5051403;28;20440;-57
2021/12/26 11:43:02;;;;;;;5.37;4.97;;;6.40;37.80;;;;;;5047202;28;20436;-59
2021/12/26 11:45:37;;;;;;;5.13;4.73;;;6.40;36.90;;;;;;5044928;28;20427;-53
2021/12/26 11:48:41;;;;;;;4.77;4.47;;;6.60;36.40;;;;;;5050812;28;20432;-54
2021/12/26 11:51:25;;;;;;;5.30;4.90;;;6.90;35.80;;;;;;5031958;28;20879;-52
2021/12/26 11:54:35;;;;;;;5.30;4.80;;;7.20;36.70;;;;;;5050539;28;21017;-57
2021/12/26 11:57:29;;;;;;;4.97;4.57;;;7.30;33.90;;;;;;5021888;28;20478;-56
2021/12/26 12:00:11;;;;;;;5.80;5.30;;;7.80;35.70;;;;;;5047725;28;20519;-51
2021/12/26 12:02:43;;;;;;;5.33;4.80;;;7.80;35.10;;;;;;5055830;28;20446;-54
2021/12/26 12:05:20;;;;;;;6.00;5.50;;;7.70;35.90;;;;;;5052564;28;20429;-50
2021/12/26 12:07:56;;;;;;;6.13;5.53;;;7.80;34.30;;;;;;5058259;28;20432;-52
2021/12/26 12:10:56;;;;;;;6.10;5.60;;;8.30;34.10;;;;;;5055238;28;20525;-50
2021/12/26 12:13:33;;;;;;;6.47;5.87;;;8.00;33.20;;;;;;5053866;28;20448;-52
2021/12/26 12:16:00;;;;;;;6.30;5.70;;;7.90;34.30;;;;;;5049432;28;20475;-54
2021/12/26 12:18:29;;;;;;;6.43;5.83;;;7.80;34.80;;;;;;5051785;28;20481;-54
2021/12/26 12:21:24;;;;;;;6.07;5.57;;;7.60;34.70;;;;;;5050193;28;20524;-53
2021/12/26 12:24:03;;;;;;;6.20;5.70;;;7.50;35.00;;;;;;5050175;28;20435;-53
2021/12/26 12:26:47;;;;;;;6.63;6.03;;;7.50;34.40;;;;;;5050628;28;20444;-52
2021/12/26 12:29:24;;;;;;;6.90;6.20;;;7.60;34.20;;;;;;5050247;28;20444;-54
2021/12/26 12:32:09;;;;;;;6.83;6.23;;;7.50;33.80;;;;;;5049831;28;20429;-51
2021/12/26 12:34:44;;;;;;;6.80;6.20;;;7.20;34.60;;;;;;5050695;28;20759;-53
2021/12/26 12:37:09;;;;;;;7.37;6.63;;;7.00;33.90;;;;;;5048289;28;20464;-50
2021/12/26 12:39:35;;;;;;;7.37;6.40;;;6.50;35.60;;;;;;5045542;28;20795;-50
2021/12/26 12:42:01;;;;;;;7.13;6.53;;;6.60;37.10;;;;;;5048755;28;20548;-62
2021/12/26 12:44:34;;;;;;;7.23;6.53;;;6.60;38.00;;;;;;5049809;28;20186;-58
2021/12/26 12:47:01;;;;;;;7.00;6.30;;;6.70;35.90;;;;;;5054174;28;20445;-58
2021/12/26 12:49:45;;;;;;;7.20;6.60;;;6.80;35.20;;;;;;5050465;28;20428;-55
2021/12/26 12:52:46;;;;;;;7.00;6.40;;;6.90;35.70;;;;;;5057099;28;20459;-52